Time;durP1;ratioP1;P1;durP2;ratioP2;P2;SDS_P1;SDS_P2;PMS_P1;PMS_P2;Temp;Humidity;BMP_temperature;BMP_pressure;BME280_temperature;BME280_humidity;BME280_pressure;Samples;Min_cycle;Max_cycle;Signal;HPM_P1;HPM_P2
2024/01/06 00:01:26;;;;;;;0.43;0.43;;;5.50;99.90;;;;;;5047052;28;20185;-84
2024/01/06 00:03:52;;;;;;;0.43;0.40;;;5.40;99.90;;;;;;5050397;28;20204;-84
2024/01/06 00:06:17;;;;;;;3.17;0.60;;;5.50;99.90;;;;;;5058519;28;20609;-88
2024/01/06 00:08:43;;;;;;;5.47;0.90;;;5.40;99.90;;;;;;5037467;28;20717;-89
2024/01/06 00:11:09;;;;;;;1.43;0.30;;;5.40;99.90;;;;;;5047979;28;20245;-82
2024/01/06 00:13:36;;;;;;;0.88;0.50;;;5.50;99.90;;;;;;5032038;28;20188;-86
2024/01/06 00:16:01;;;;;;;3.70;0.40;;;5.40;99.90;;;;;;5036001;28;20312;-84
2024/01/06 00:18:27;;;;;;;1.10;1.03;;;5.40;99.90;;;;;;5047454;28;20191;-81
2024/01/06 00:20:52;;;;;;;0.40;0.30;;;5.40;99.90;;;;;;5056431;28;20199;-81
2024/01/06 00:23:18;;;;;;;0.53;0.53;;;5.40;99.90;;;;;;5038001;28;20181;-85
2024/01/06 00:25:43;;;;;;;1.43;0.60;;;5.50;99.90;;;;;;5057182;28;20640;-83
2024/01/06 00:28:09;;;;;;;0.87;0.40;;;5.40;99.90;;;;;;5031352;28;20698;-82
2024/01/06 00:30:35;;;;;;;0.70;0.50;;;5.40;99.90;;;;;;5034392;28;20188;-84
2024/01/06 00:33:00;;;;;;;4.60;1.07;;;5.50;99.90;;;;;;5034656;28;20583;-85
2024/01/06 00:35:26;;;;;;;0.30;0.30;;;5.40;99.90;;;;;;5043569;28;20282;-82
2024/01/06 00:37:52;;;;;;;0.70;0.40;;;5.40;99.90;;;;;;5040584;28;20220;-85
2024/01/06 00:40:19;;;;;;;4.60;0.50;;;5.40;99.90;;;;;;5044422;28;20185;-83
2024/01/06 00:42:45;;;;;;;1.10;0.50;;;5.40;99.90;;;;;;5039284;28;20443;-85
2024/01/06 00:45:10;;;;;;;0.50;0.50;;;5.40;99.90;;;;;;5039474;28;20217;-84
2024/01/06 00:47:36;;;;;;;2.37;1.10;;;5.50;99.90;;;;;;5036456;28;20212;-83
2024/01/06 00:50:01;;;;;;;1.10;0.80;;;5.40;99.90;;;;;;5034472;28;20197;-83
2024/01/06 00:52:27;;;;;;;0.50;0.50;;;5.40;99.90;;;;;;5041564;28;20203;-85
2024/01/06 00:54:52;;;;;;;0.97;0.50;;;5.40;99.90;;;;;;5027094;28;20201;-82
2024/01/06 00:57:23;;;;;;;1.43;0.93;;;5.40;99.90;;;;;;5028385;28;20251;-82
2024/01/06 00:59:49;;;;;;;1.30;0.70;;;5.30;99.90;;;;;;5026156;28;20184;-84
2024/01/06 01:02:14;;;;;;;5.90;0.87;;;5.30;99.90;;;;;;5040710;28;20213;-83
2024/01/06 01:04:40;;;;;;;0.97;0.80;;;5.30;99.90;;;;;;5033795;28;20208;-84
2024/01/06 01:07:05;;;;;;;1.70;0.63;;;5.30;99.90;;;;;;5043089;28;20212;-84
2024/01/06 01:09:31;;;;;;;2.20;0.70;;;5.30;99.90;;;;;;5029578;28;20188;-83
2024/01/06 01:11:56;;;;;;;0.60;0.40;;;5.30;99.90;;;;;;5037147;28;20222;-84
2024/01/06 01:14:22;;;;;;;4.60;0.90;;;5.30;99.90;;;;;;5034981;28;20191;-83
2024/01/06 01:16:48;;;;;;;0.40;0.30;;;5.30;99.90;;;;;;5037872;28;20208;-86
2024/01/06 01:19:14;;;;;;;0.50;0.37;;;5.30;99.90;;;;;;5056141;28;20189;-86
2024/01/06 01:21:39;;;;;;;0.80;0.63;;;5.30;99.90;;;;;;5049017;28;20191;-88
2024/01/06 01:24:05;;;;;;;0.97;0.87;;;5.30;99.90;;;;;;5043464;28;20220;-79
2024/01/06 01:26:31;;;;;;;1.50;0.57;;;5.30;99.90;;;;;;5046260;28;20217;-82
2024/01/06 01:28:56;;;;;;;0.80;0.57;;;5.30;99.90;;;;;;5038607;28;20199;-82
2024/01/06 01:31:22;;;;;;;1.70;0.60;;;5.30;99.90;;;;;;5042223;28;20216;-84
2024/01/06 01:33:47;;;;;;;2.10;1.13;;;5.30;99.90;;;;;;5026373;28;20192;-83
2024/01/06 01:36:13;;;;;;;0.50;0.40;;;5.30;99.90;;;;;;5026454;28;22758;-87
2024/01/06 01:38:38;;;;;;;4.37;0.67;;;5.30;99.90;;;;;;5029126;28;21016;-83
2024/01/06 01:41:04;;;;;;;9.30;1.10;;;5.30;99.90;;;;;;5033593;28;20686;-84
2024/01/06 01:43:30;;;;;;;0.90;0.67;;;5.30;99.90;;;;;;5033203;28;20198;-83
2024/01/06 01:45:56;;;;;;;2.13;0.98;;;5.30;99.90;;;;;;5038078;28;20213;-82
2024/01/06 01:48:23;;;;;;;0.73;0.60;;;5.30;99.90;;;;;;5032408;28;20235;-82
2024/01/06 01:50:49;;;;;;;0.60;0.60;;;5.20;99.90;;;;;;5045296;28;20196;-82
2024/01/06 01:53:14;;;;;;;1.53;0.73;;;5.20;99.90;;;;;;5035017;28;20184;-85
2024/01/06 01:55:41;;;;;;;1.27;0.60;;;5.20;99.90;;;;;;5050378;28;20449;-82
2024/01/06 01:58:08;;;;;;;1.65;0.60;;;5.20;99.90;;;;;;5029449;28;20330;-83
2024/01/06 02:00:34;;;;;;;0.88;0.77;;;5.20;99.90;;;;;;5048016;28;21182;-84
2024/01/06 02:03:02;;;;;;;1.53;1.30;;;5.20;99.90;;;;;;5036153;28;20268;-84
2024/01/06 02:05:28;;;;;;;0.80;0.80;;;5.10;99.90;;;;;;5028856;28;20254;-83
2024/01/06 02:07:54;;;;;;;0.50;0.43;;;5.10;99.90;;;;;;5032761;28;20919;-82
2024/01/06 02:10:19;;;;;;;3.73;1.20;;;5.10;99.90;;;;;;5029093;28;20666;-83
2024/01/06 02:12:45;;;;;;;1.23;0.83;;;5.20;99.90;;;;;;5030803;28;20746;-84
2024/01/06 02:15:10;;;;;;;1.03;0.80;;;5.20;99.90;;;;;;5031059;28;20192;-82
2024/01/06 02:17:36;;;;;;;0.50;0.40;;;5.10;99.90;;;;;;5039475;28;20698;-84
2024/01/06 02:20:01;;;;;;;2.13;0.63;;;5.10;99.90;;;;;;5040072;28;20740;-86
2024/01/06 02:22:27;;;;;;;3.90;0.63;;;5.10;99.90;;;;;;5038260;28;20266;-84
2024/01/06 02:24:54;;;;;;;0.73;0.50;;;5.10;99.90;;;;;;5034771;28;20223;-82
2024/01/06 02:27:20;;;;;;;0.80;0.80;;;5.10;99.90;;;;;;5032104;28;22044;-83
2024/01/06 02:29:45;;;;;;;0.50;0.50;;;5.00;99.90;;;;;;5036917;28;20200;-81
2024/01/06 02:32:11;;;;;;;2.93;0.87;;;5.00;99.90;;;;;;5042977;28;20258;-85
2024/01/06 02:34:38;;;;;;;1.73;0.70;;;4.90;99.90;;;;;;5046830;28;20192;-86
2024/01/06 02:37:03;;;;;;;1.17;0.57;;;5.00;99.90;;;;;;5071866;28;20197;-80
2024/01/06 02:39:29;;;;;;;1.43;0.60;;;5.10;99.90;;;;;;5053801;28;21051;-83
2024/01/06 02:41:54;;;;;;;1.27;0.83;;;5.10;99.90;;;;;;5041899;28;20193;-85
2024/01/06 02:44:20;;;;;;;1.50;0.70;;;5.00;99.90;;;;;;5045817;28;20204;-84
2024/01/06 02:46:45;;;;;;;3.90;1.50;;;5.00;99.90;;;;;;5042933;28;20294;-86
2024/01/06 02:49:11;;;;;;;1.73;1.03;;;5.00;99.90;;;;;;5054159;28;20561;-85
2024/01/06 02:51:37;;;;;;;0.57;0.55;;;4.90;99.90;;;;;;5036144;28;20220;-83
2024/01/06 02:54:03;;;;;;;0.57;0.57;;;4.90;99.90;;;;;;5032398;28;20611;-85
2024/01/06 02:56:29;;;;;;;1.13;0.98;;;4.80;99.90;;;;;;5049580;28;20208;-82
2024/01/06 02:58:54;;;;;;;2.00;0.93;;;4.70;99.90;;;;;;5039210;28;20222;-85
2024/01/06 03:01:20;;;;;;;4.23;0.80;;;4.70;99.90;;;;;;5033545;28;20200;-84
2024/01/06 03:03:45;;;;;;;1.70;1.00;;;4.60;99.90;;;;;;5052394;28;20193;-86
2024/01/06 03:06:11;;;;;;;2.83;1.27;;;4.60;99.90;;;;;;5033492;28;20209;-87
2024/01/06 03:08:36;;;;;;;3.37;1.50;;;4.50;99.90;;;;;;5049039;28;20222;-84
2024/01/06 03:11:03;;;;;;;1.13;0.90;;;4.50;99.90;;;;;;5041597;28;20195;-82
2024/01/06 03:13:29;;;;;;;1.50;0.90;;;4.50;99.90;;;;;;5034515;28;20825;-85
2024/01/06 03:15:55;;;;;;;2.73;1.23;;;4.50;99.90;;;;;;5034165;28;20205;-86
2024/01/06 03:18:20;;;;;;;7.30;1.10;;;4.50;99.90;;;;;;5035609;28;20176;-82
2024/01/06 03:20:45;;;;;;;1.23;0.77;;;4.50;99.90;;;;;;5054636;28;21939;-85
2024/01/06 03:23:11;;;;;;;1.73;0.67;;;4.40;99.90;;;;;;5039036;28;20185;-84
2024/01/06 03:25:36;;;;;;;1.80;1.23;;;4.40;99.90;;;;;;5035482;28;20216;-84
2024/01/06 03:28:02;;;;;;;3.20;1.27;;;4.50;99.90;;;;;;5049221;28;20412;-85
2024/01/06 03:30:28;;;;;;;1.13;0.80;;;4.50;99.90;;;;;;5034800;28;20274;-85
2024/01/06 03:32:53;;;;;;;2.27;0.93;;;4.50;99.90;;;;;;5039273;28;20189;-85
2024/01/06 03:35:19;;;;;;;4.53;0.57;;;4.50;99.90;;;;;;5042945;28;20261;-83
2024/01/06 03:37:44;;;;;;;0.57;0.30;;;4.50;99.90;;;;;;5033158;28;20209;-83
2024/01/06 03:40:10;;;;;;;1.33;1.03;;;4.50;99.90;;;;;;5043049;28;20208;-85
2024/01/06 03:42:36;;;;;;;5.47;1.13;;;4.50;99.90;;;;;;5039920;28;20953;-85
2024/01/06 03:45:03;;;;;;;0.73;0.70;;;4.50;99.90;;;;;;5066972;28;20223;-84
2024/01/06 03:47:29;;;;;;;1.65;1.23;;;4.50;99.90;;;;;;5053266;28;21293;-82
2024/01/06 03:49:54;;;;;;;4.47;0.87;;;4.50;99.90;;;;;;5035401;28;20184;-84
2024/01/06 03:52:20;;;;;;;0.83;0.70;;;4.50;99.90;;;;;;5034105;28;20193;-80
2024/01/06 03:54:45;;;;;;;2.10;0.97;;;4.50;99.90;;;;;;5038959;28;20619;-86
2024/01/06 03:57:10;;;;;;;0.90;0.70;;;4.50;99.90;;;;;;5058627;28;20208;-82
2024/01/06 03:59:36;;;;;;;10.60;0.87;;;4.50;99.90;;;;;;5042315;28;20192;-83
2024/01/06 04:02:01;;;;;;;1.37;0.70;;;4.50;99.90;;;;;;5046065;28;20267;-84
2024/01/06 04:04:27;;;;;;;1.80;1.30;;;4.50;99.90;;;;;;5034893;28;20374;-86
2024/01/06 04:06:52;;;;;;;0.60;0.60;;;4.40;99.90;;;;;;5031232;28;20278;-83
2024/01/06 04:09:18;;;;;;;1.70;1.20;;;4.40;99.90;;;;;;5036953;28;20666;-82
2024/01/06 04:11:43;;;;;;;0.80;0.80;;;4.40;99.90;;;;;;5052617;28;20189;-85
2024/01/06 04:14:09;;;;;;;2.20;1.13;;;4.30;99.90;;;;;;5038414;28;20204;-86
2024/01/06 04:16:34;;;;;;;2.67;1.60;;;4.30;99.90;;;;;;5033285;28;20212;-82
2024/01/06 04:19:00;;;;;;;2.53;1.57;;;4.30;99.90;;;;;;5045893;28;20199;-83
2024/01/06 04:21:25;;;;;;;0.77;0.60;;;4.20;99.90;;;;;;5054619;28;20476;-83
2024/01/06 04:23:51;;;;;;;0.90;0.87;;;4.20;99.90;;;;;;5031684;28;20334;-83
2024/01/06 04:26:16;;;;;;;1.00;0.70;;;4.20;99.90;;;;;;5049975;28;20204;-83
2024/01/06 04:28:42;;;;;;;0.50;0.50;;;4.20;99.90;;;;;;5050210;28;20330;-82
2024/01/06 04:31:07;;;;;;;0.63;0.63;;;4.20;99.90;;;;;;5040843;28;20566;-87
2024/01/06 04:33:33;;;;;;;3.80;1.57;;;4.30;99.90;;;;;;5036020;28;20185;-83
2024/01/06 04:35:59;;;;;;;2.07;1.00;;;4.30;99.90;;;;;;5054346;28;20217;-84
2024/01/06 04:38:24;;;;;;;4.60;1.10;;;4.30;99.90;;;;;;5036912;28;20188;-84
2024/01/06 04:40:50;;;;;;;1.80;0.80;;;4.30;99.90;;;;;;5035408;28;20185;-84
2024/01/06 04:43:15;;;;;;;1.13;1.03;;;4.30;99.90;;;;;;5050632;28;21327;-83
2024/01/06 04:45:41;;;;;;;2.00;0.57;;;4.20;99.90;;;;;;5035250;28;20204;-82
2024/01/06 04:48:07;;;;;;;0.70;0.57;;;4.20;99.90;;;;;;5066318;28;20211;-84
2024/01/06 04:50:32;;;;;;;3.13;1.10;;;4.20;99.90;;;;;;5062647;28;20176;-81
2024/01/06 04:52:58;;;;;;;0.80;0.60;;;4.20;99.90;;;;;;5043548;28;20197;-84
2024/01/06 04:55:23;;;;;;;2.67;0.80;;;4.30;99.90;;;;;;5041045;28;20181;-84
2024/01/06 04:57:49;;;;;;;2.00;0.87;;;4.30;99.90;;;;;;5037429;28;20222;-84
2024/01/06 05:00:15;;;;;;;10.32;0.93;;;4.30;99.90;;;;;;5047774;28;20272;-85
2024/01/06 05:02:41;;;;;;;0.73;0.73;;;4.20;99.90;;;;;;5035452;28;20244;-84
2024/01/06 05:05:07;;;;;;;1.37;0.60;;;4.20;99.90;;;;;;5033894;28;20294;-82
2024/01/06 05:07:32;;;;;;;3.30;0.90;;;4.20;99.90;;;;;;5035984;28;20516;-84
2024/01/06 05:09:58;;;;;;;1.03;1.00;;;4.20;99.90;;;;;;5034039;28;20184;-80
2024/01/06 05:12:23;;;;;;;1.40;0.97;;;4.20;99.90;;;;;;5048663;28;20438;-83
2024/01/06 05:14:49;;;;;;;0.70;0.70;;;4.20;99.90;;;;;;5037518;28;20531;-83
2024/01/06 05:17:14;;;;;;;10.13;0.60;;;4.20;99.90;;;;;;5042768;28;20215;-81
2024/01/06 05:19:40;;;;;;;2.00;1.00;;;4.20;99.90;;;;;;5046731;28;20185;-82
2024/01/06 05:22:05;;;;;;;2.03;0.97;;;4.20;99.90;;;;;;5052813;28;20234;-84
2024/01/06 05:24:31;;;;;;;2.93;1.50;;;4.20;99.90;;;;;;5037051;28;20211;-84
2024/01/06 05:26:59;;;;;;;1.40;1.00;;;4.20;99.90;;;;;;5033437;28;20212;-84
2024/01/06 05:29:25;;;;;;;1.27;1.10;;;4.20;99.90;;;;;;5037752;28;20184;-80
2024/01/06 05:31:51;;;;;;;1.58;0.98;;;4.20;99.90;;;;;;5031908;28;20184;-80
2024/01/06 05:34:17;;;;;;;0.90;0.90;;;4.10;99.90;;;;;;5028899;28;21047;-82
2024/01/06 05:36:42;;;;;;;1.67;1.13;;;4.10;99.90;;;;;;5032474;28;20232;-83
2024/01/06 05:39:08;;;;;;;1.50;1.20;;;4.20;99.90;;;;;;5051320;28;20189;-82
2024/01/06 05:41:40;;;;;;;2.43;1.10;;;4.10;99.90;;;;;;5032173;28;21043;-80
2024/01/06 05:44:06;;;;;;;1.20;0.88;;;4.10;99.90;;;;;;5046944;28;21017;-83
2024/01/06 05:46:31;;;;;;;0.60;0.60;;;4.10;99.90;;;;;;5049674;28;20263;-85
2024/01/06 05:48:57;;;;;;;8.93;2.30;;;4.10;99.90;;;;;;5047849;28;20207;-85
2024/01/06 05:51:23;;;;;;;1.73;0.80;;;4.10;99.90;;;;;;5039796;28;20184;-85
2024/01/06 05:53:48;;;;;;;0.97;0.97;;;4.00;99.90;;;;;;5040086;28;20191;-84
2024/01/06 05:56:25;;;;;;;7.17;2.13;;;4.00;99.90;;;;;;5047720;28;20220;-83
2024/01/06 05:58:50;;;;;;;0.98;0.77;;;3.90;99.90;;;;;;5060340;28;20350;-86
2024/01/06 06:01:16;;;;;;;1.67;1.00;;;3.90;99.90;;;;;;5035145;28;20263;-85
2024/01/06 06:03:43;;;;;;;1.93;1.30;;;3.90;99.90;;;;;;5032822;28;20196;-83
2024/01/06 06:06:08;;;;;;;0.93;0.75;;;3.90;99.90;;;;;;5033043;28;20523;-84
2024/01/06 06:08:34;;;;;;;1.33;1.23;;;3.90;99.90;;;;;;5032451;28;20308;-83
2024/01/06 06:11:01;;;;;;;1.53;1.00;;;3.90;99.90;;;;;;5051312;28;20196;-86
2024/01/06 06:13:29;;;;;;;4.22;1.20;;;3.90;99.90;;;;;;5048505;28;20188;-85
2024/01/06 06:15:55;;;;;;;5.95;1.23;;;3.90;99.90;;;;;;5051074;28;20212;-82
2024/01/06 06:18:21;;;;;;;2.88;1.30;;;4.00;99.90;;;;;;5030305;28;20193;-80
2024/01/06 06:20:47;;;;;;;1.67;1.40;;;4.00;99.90;;;;;;5048588;28;20189;-87
2024/01/06 06:23:13;;;;;;;10.80;1.63;;;4.10;99.90;;;;;;5043839;28;20243;-80
2024/01/06 06:25:39;;;;;;;0.70;0.70;;;4.10;99.90;;;;;;5057792;28;20253;-84
2024/01/06 06:28:05;;;;;;;1.95;1.40;;;4.10;99.90;;;;;;5044732;28;20503;-80
2024/01/06 06:30:30;;;;;;;1.45;1.35;;;4.20;99.90;;;;;;5053759;28;20206;-82
2024/01/06 06:32:56;;;;;;;2.03;1.10;;;4.20;99.90;;;;;;5042285;28;20413;-83
2024/01/06 06:35:23;;;;;;;1.23;1.10;;;4.30;99.90;;;;;;5050472;28;20191;-85
2024/01/06 06:37:49;;;;;;;1.35;0.90;;;4.30;99.90;;;;;;5050847;28;20224;-87
2024/01/06 06:40:15;;;;;;;1.52;0.90;;;4.40;99.90;;;;;;5036920;28;20185;-81
2024/01/06 06:42:41;;;;;;;1.40;0.90;;;4.40;99.90;;;;;;5044759;28;20465;-80
2024/01/06 06:45:06;;;;;;;5.50;2.17;;;4.50;99.90;;;;;;5033164;28;20475;-84
2024/01/06 06:47:32;;;;;;;10.00;0.80;;;4.40;99.90;;;;;;5035708;28;20258;-83
2024/01/06 06:49:57;;;;;;;0.97;0.60;;;4.40;99.90;;;;;;5034062;28;20519;-84
2024/01/06 06:52:23;;;;;;;0.87;0.80;;;4.40;99.90;;;;;;5043454;28;20245;-82
2024/01/06 06:54:48;;;;;;;0.70;0.50;;;4.40;99.90;;;;;;5029159;28;20243;-83
2024/01/06 06:57:15;;;;;;;0.47;0.47;;;4.40;99.90;;;;;;5048164;28;20906;-85
2024/01/06 06:59:41;;;;;;;3.85;1.05;;;4.40;99.90;;;;;;5050836;28;24024;-84
2024/01/06 07:02:06;;;;;;;3.07;1.20;;;4.40;99.90;;;;;;5033718;28;20444;-83
2024/01/06 07:04:32;;;;;;;1.33;0.67;;;4.40;99.90;;;;;;5050306;28;20523;-86
2024/01/06 07:06:57;;;;;;;1.50;1.30;;;4.40;99.90;;;;;;5033493;28;20200;-83
2024/01/06 07:09:24;;;;;;;4.73;1.30;;;4.50;99.90;;;;;;5037419;28;20189;-87
2024/01/06 07:11:50;;;;;;;1.50;1.40;;;4.50;99.90;;;;;;5039384;28;20895;-86
2024/01/06 07:14:15;;;;;;;1.60;1.10;;;4.60;99.90;;;;;;5049805;28;20222;-84
2024/01/06 07:16:41;;;;;;;6.10;2.17;;;4.50;99.90;;;;;;5032894;28;20683;-84
2024/01/06 07:19:06;;;;;;;1.10;0.80;;;4.50;99.90;;;;;;5052602;28;20185;-80
2024/01/06 07:21:32;;;;;;;3.60;1.10;;;4.50;99.90;;;;;;5040871;28;20188;-84
2024/01/06 07:23:57;;;;;;;7.63;0.87;;;4.50;99.90;;;;;;5033722;28;20797;-86
2024/01/06 07:26:23;;;;;;;1.90;0.90;;;4.60;99.90;;;;;;5045146;28;20193;-86
2024/01/06 07:28:48;;;;;;;1.40;0.63;;;4.60;99.90;;;;;;5031534;28;20188;-85
2024/01/06 07:31:14;;;;;;;10.93;1.50;;;4.60;99.90;;;;;;5038645;28;20185;-85
2024/01/06 07:33:40;;;;;;;2.83;1.30;;;4.70;99.90;;;;;;5070510;28;20238;-82
2024/01/06 07:36:06;;;;;;;4.30;1.33;;;4.70;99.90;;;;;;5044213;28;20334;-84
2024/01/06 07:38:31;;;;;;;3.40;1.23;;;4.70;99.90;;;;;;5035186;28;20326;-84
2024/01/06 07:40:57;;;;;;;23.07;1.33;;;4.70;99.90;;;;;;5043090;28;20451;-84
2024/01/06 07:43:22;;;;;;;2.17;1.10;;;4.70;99.90;;;;;;5043828;28;20191;-86
2024/01/06 07:45:48;;;;;;;2.07;0.60;;;4.70;99.90;;;;;;5033004;28;20316;-85
2024/01/06 07:48:15;;;;;;;2.50;1.50;;;4.70;99.90;;;;;;5040678;28;20196;-84
2024/01/06 07:50:40;;;;;;;1.48;1.10;;;4.80;99.90;;;;;;5039025;28;20188;-87
2024/01/06 07:53:05;;;;;;;5.47;1.40;;;4.80;99.90;;;;;;5050741;28;20220;-87
2024/01/06 07:55:31;;;;;;;0.87;0.80;;;4.90;99.90;;;;;;5046512;28;20187;-83
2024/01/06 07:57:57;;;;;;;7.40;1.20;;;4.90;99.90;;;;;;5042082;28;20283;-84
2024/01/06 08:00:22;;;;;;;3.03;1.47;;;6.80;99.90;;;;;;5047510;28;20192;-85
2024/01/06 08:02:48;;;;;;;3.20;0.97;;;4.90;99.90;;;;;;5029822;28;20209;-84
2024/01/06 08:05:13;;;;;;;1.70;0.60;;;4.90;99.90;;;;;;5030918;28;20212;-85
2024/01/06 08:07:39;;;;;;;2.40;1.00;;;4.90;99.90;;;;;;5026816;28;20208;-85
2024/01/06 08:10:05;;;;;;;2.00;1.20;;;4.90;99.90;;;;;;5032429;28;20458;-84
2024/01/06 08:12:31;;;;;;;3.95;1.02;;;4.90;99.90;;;;;;5044499;28;21955;-84
2024/01/06 08:14:56;;;;;;;1.93;1.17;;;5.10;99.90;;;;;;5028358;28;20192;-85
2024/01/06 08:17:22;;;;;;;2.77;1.60;;;5.00;99.90;;;;;;5023859;28;20204;-83
2024/01/06 08:19:48;;;;;;;1.93;1.50;;;5.00;99.90;;;;;;5031281;28;20208;-86
2024/01/06 08:22:14;;;;;;;2.50;1.63;;;4.90;99.90;;;;;;5031422;28;20198;-83
2024/01/06 08:24:39;;;;;;;2.70;1.40;;;4.90;99.90;;;;;;5036975;28;20291;-87
2024/01/06 08:27:05;;;;;;;11.03;1.53;;;5.00;99.90;;;;;;5048738;28;20502;-86
2024/01/06 08:29:31;;;;;;;0.90;0.70;;;5.10;99.90;;;;;;5036068;28;20192;-83
2024/01/06 08:31:56;;;;;;;1.80;0.87;;;5.10;99.90;;;;;;5030664;28;20195;-84
2024/01/06 08:34:22;;;;;;;0.80;0.67;;;5.10;99.90;;;;;;5047774;28;20447;-86
2024/01/06 08:36:47;;;;;;;7.93;1.07;;;5.10;99.90;;;;;;5050390;28;20660;-85
2024/01/06 08:39:13;;;;;;;0.53;0.53;;;5.10;99.90;;;;;;5050218;28;20242;-86
2024/01/06 08:41:39;;;;;;;3.13;1.23;;;5.20;99.90;;;;;;5040229;28;20654;-84
2024/01/06 08:44:04;;;;;;;2.53;1.37;;;5.30;99.90;;;;;;5047158;28;20439;-85
2024/01/06 08:46:30;;;;;;;1.50;1.13;;;5.40;99.90;;;;;;5062795;28;20669;-87
2024/01/06 08:48:56;;;;;;;1.33;0.80;;;5.30;99.90;;;;;;5032224;28;20210;-84
2024/01/06 08:51:22;;;;;;;3.50;1.07;;;5.20;99.90;;;;;;5048249;28;20180;-84
2024/01/06 08:53:48;;;;;;;1.83;1.23;;;5.20;99.90;;;;;;5031297;28;20439;-85
2024/01/06 08:56:15;;;;;;;0.80;0.80;;;5.30;99.90;;;;;;5036406;28;20220;-85
2024/01/06 08:58:41;;;;;;;4.32;1.58;;;5.20;99.90;;;;;;5030309;28;20312;-87
2024/01/06 09:01:06;;;;;;;0.73;0.73;;;5.20;99.90;;;;;;5038575;28;20252;-81
2024/01/06 09:03:32;;;;;;;2.63;1.00;;;5.20;99.90;;;;;;5037573;28;20202;-81
2024/01/06 09:05:58;;;;;;;5.60;1.43;;;5.20;99.90;;;;;;5039383;28;20877;-81
2024/01/06 09:08:26;;;;;;;1.10;1.00;;;5.20;99.90;;;;;;5034159;28;20184;-82
2024/01/06 09:10:56;;;;;;;1.23;0.82;;;5.20;99.90;;;;;;5032222;28;20474;-88
2024/01/06 09:13:23;;;;;;;3.55;1.40;;;5.20;99.90;;;;;;5033986;28;20188;-86
2024/01/06 09:15:48;;;;;;;1.55;1.15;;;5.20;99.90;;;;;;5029341;28;20198;-90
2024/01/06 09:18:14;;;;;;;2.50;1.80;;;5.20;99.90;;;;;;5045896;28;20569;-86
2024/01/06 09:20:39;;;;;;;2.70;1.50;;;5.30;99.90;;;;;;5029035;28;20200;-87
2024/01/06 09:23:05;;;;;;;2.53;1.33;;;5.30;99.90;;;;;;5038297;28;20188;-87
2024/01/06 09:25:31;;;;;;;4.13;1.63;;;5.30;99.90;;;;;;5033745;28;20506;-85
2024/01/06 09:27:56;;;;;;;7.87;2.10;;;5.40;99.90;;;;;;5042763;28;20463;-85
2024/01/06 09:30:22;;;;;;;2.90;1.90;;;5.40;99.90;;;;;;5047235;28;20598;-84
2024/01/06 09:32:47;;;;;;;4.80;0.90;;;5.40;99.90;;;;;;5033118;28;20204;-84
2024/01/06 09:35:13;;;;;;;1.27;1.17;;;5.40;99.90;;;;;;5029184;28;20193;-85
2024/01/06 09:37:39;;;;;;;2.43;1.50;;;5.40;99.90;;;;;;5024531;28;20215;-83
2024/01/06 09:40:06;;;;;;;3.50;1.35;;;5.30;99.90;;;;;;5043076;28;20565;-83
2024/01/06 09:42:31;;;;;;;1.95;1.50;;;5.40;99.90;;;;;;5027964;28;20645;-85
2024/01/06 09:44:57;;;;;;;4.70;1.90;;;5.40;99.90;;;;;;5045586;28;20274;-81
2024/01/06 09:47:23;;;;;;;0.90;0.63;;;5.50;99.90;;;;;;5030640;28;20348;-83
2024/01/06 09:49:50;;;;;;;1.50;1.00;;;5.50;99.90;;;;;;5029401;28;20570;-86
2024/01/06 09:52:21;;;;;;;2.10;1.30;;;5.50;99.90;;;;;;5042547;28;20225;-83
2024/01/06 09:54:51;;;;;;;12.00;1.90;;;5.40;99.90;;;;;;5043674;28;20194;-83
2024/01/06 09:57:17;;;;;;;1.13;0.90;;;5.50;99.90;;;;;;5037327;28;20212;-84
2024/01/06 09:59:46;;;;;;;2.00;1.37;;;5.50;99.90;;;;;;5034608;28;21168;-89
2024/01/06 10:02:17;;;;;;;1.85;1.30;;;5.50;99.90;;;;;;5038910;28;20302;-85
2024/01/06 10:04:45;;;;;;;1.55;1.45;;;5.50;99.90;;;;;;5036099;28;20451;-88
2024/01/06 10:07:12;;;;;;;2.00;1.70;;;5.60;99.90;;;;;;5048507;28;20219;-82
2024/01/06 10:09:38;;;;;;;1.77;1.58;;;5.60;99.90;;;;;;5046785;28;20518;-85
2024/01/06 10:12:03;;;;;;;3.00;1.33;;;5.50;99.90;;;;;;5034627;28;20189;-87
2024/01/06 10:14:29;;;;;;;1.80;1.13;;;5.60;99.90;;;;;;5030803;28;20819;-85
2024/01/06 10:16:54;;;;;;;2.87;2.10;;;5.60;99.90;;;;;;5049458;28;20205;-86
2024/01/06 10:19:20;;;;;;;3.43;1.43;;;5.70;99.90;;;;;;5037283;28;20185;-86
2024/01/06 10:21:46;;;;;;;2.73;1.73;;;5.60;99.90;;;;;;5052639;28;20177;-86
2024/01/06 10:24:13;;;;;;;2.80;1.23;;;5.60;99.90;;;;;;5047673;28;20442;-85
2024/01/06 10:26:39;;;;;;;0.73;0.70;;;5.70;99.90;;;;;;5060714;28;20470;-85
2024/01/06 10:29:05;;;;;;;1.70;1.20;;;5.70;99.90;;;;;;5060234;28;20177;-83
2024/01/06 10:31:30;;;;;;;2.90;1.60;;;5.80;99.90;;;;;;5048361;28;20199;-85
2024/01/06 10:33:56;;;;;;;2.40;1.73;;;5.70;99.90;;;;;;5038883;28;20180;-88
2024/01/06 10:36:26;;;;;;;4.73;1.60;;;5.70;99.90;;;;;;5047585;28;20296;-87
2024/01/06 10:38:52;;;;;;;4.00;2.25;;;5.60;99.90;;;;;;5032611;28;20191;-88
2024/01/06 10:41:20;;;;;;;4.10;1.63;;;5.50;99.90;;;;;;5053988;28;20786;-87
2024/01/06 10:43:47;;;;;;;4.07;2.13;;;5.40;99.90;;;;;;5041536;28;20843;-86
2024/01/06 10:46:15;;;;;;;2.50;1.00;;;5.40;99.90;;;;;;5038010;28;21156;-85
2024/01/06 10:48:42;;;;;;;3.67;2.08;;;5.20;99.90;;;;;;5033406;28;20200;-83
2024/01/06 10:51:13;;;;;;;1.65;1.55;;;5.30;99.90;;;;;;5051487;28;20223;-86
2024/01/06 10:53:40;;;;;;;1.73;1.35;;;5.30;99.90;;;;;;5048535;28;20196;-84
2024/01/06 10:56:12;;;;;;;2.78;1.67;;;5.30;99.90;;;;;;5043770;28;20290;-85
2024/01/06 10:58:46;;;;;;;7.63;2.05;;;5.20;99.90;;;;;;5039607;28;20192;-85
2024/01/06 11:01:12;;;;;;;3.17;1.38;;;5.30;99.90;;;;;;5031140;28;20670;-86
2024/01/06 11:03:39;;;;;;;3.47;1.47;;;5.30;99.90;;;;;;5031544;28;20185;-86
2024/01/06 11:06:11;;;;;;;2.70;2.40;;;5.30;99.90;;;;;;5052353;28;20295;-87
2024/01/06 11:08:49;;;;;;;2.15;1.65;;;5.40;99.90;;;;;;5020321;28;20857;-86
2024/01/06 11:11:18;;;;;;;4.20;2.05;;;5.50;99.90;;;;;;5012492;28;20200;-85
2024/01/06 11:13:45;;;;;;;3.13;2.10;;;5.60;99.90;;;;;;5034936;28;20194;-81
2024/01/06 11:16:11;;;;;;;2.50;1.63;;;5.70;99.90;;;;;;5016431;28;21008;-85
2024/01/06 11:18:38;;;;;;;2.97;1.63;;;5.80;99.90;;;;;;5019092;28;20285;-88
2024/01/06 11:21:28;;;;;;;2.35;1.15;;;5.80;99.90;;;;;;5022913;28;20441;-83
2024/01/06 11:24:12;;;;;;;3.72;2.20;;;5.80;99.90;;;;;;5017348;28;20186;-84
2024/01/06 11:26:59;;;;;;;1.55;1.35;;;5.90;99.90;;;;;;5018763;28;20210;-88
2024/01/06 11:29:25;;;;;;;6.50;2.42;;;5.90;99.90;;;;;;5009912;28;20216;-85
2024/01/06 11:32:20;;;;;;;3.30;1.63;;;5.80;99.90;;;;;;5010248;28;20304;-84
2024/01/06 11:34:50;;;;;;;3.90;1.88;;;5.80;99.90;;;;;;5008502;28;20186;-85
2024/01/06 11:37:18;;;;;;;3.90;1.70;;;5.80;99.90;;;;;;4999787;28;20296;-85
2024/01/06 11:39:44;;;;;;;2.85;1.20;;;5.90;99.90;;;;;;5000595;28;20237;-83
2024/01/06 11:42:13;;;;;;;4.68;1.10;;;5.90;99.90;;;;;;5004042;28;20924;-83
2024/01/06 11:44:42;;;;;;;5.57;2.00;;;5.80;99.90;;;;;;5019518;28;20224;-84
2024/01/06 11:47:10;;;;;;;1.08;0.82;;;5.70;99.90;;;;;;5004961;28;20824;-89
2024/01/06 11:49:36;;;;;;;1.75;1.33;;;5.60;99.90;;;;;;5011379;28;20189;-86
2024/01/06 11:52:02;;;;;;;7.13;1.35;;;5.70;99.90;;;;;;5014045;28;20212;-88
2024/01/06 11:54:28;;;;;;;18.67;2.03;;;5.90;99.90;;;;;;5012356;28;20273;-85
2024/01/06 11:56:53;;;;;;;2.40;1.23;;;6.00;99.90;;;;;;5002661;28;20650;-84
2024/01/06 11:59:20;;;;;;;3.67;1.70;;;8.10;99.90;;;;;;5003252;28;20726;-84
2024/01/06 12:01:46;;;;;;;2.97;1.40;;;5.90;99.90;;;;;;5003155;28;20182;-87
2024/01/06 12:04:15;;;;;;;1.63;1.50;;;5.80;99.90;;;;;;5003393;28;20194;-83
2024/01/06 12:06:40;;;;;;;5.15;1.75;;;6.00;99.90;;;;;;5016447;28;20806;-86
2024/01/06 12:09:07;;;;;;;2.53;1.77;;;5.90;99.90;;;;;;5011511;28;20181;-85
2024/01/06 12:11:32;;;;;;;3.05;2.10;;;5.90;99.90;;;;;;5017599;28;20181;-86
2024/01/06 12:13:58;;;;;;;2.00;1.80;;;6.00;99.90;;;;;;5008611;28;20201;-83
2024/01/06 12:16:27;;;;;;;3.70;1.90;;;6.00;99.90;;;;;;5014919;28;20209;-86
2024/01/06 12:18:59;;;;;;;3.78;2.20;;;6.10;99.90;;;;;;5022904;28;20195;-81
2024/01/06 12:21:27;;;;;;;2.97;1.92;;;6.10;99.90;;;;;;5036657;28;20331;-88
2024/01/06 12:24:11;;;;;;;3.25;1.75;;;6.10;99.90;;;;;;5023392;28;20570;-87
2024/01/06 12:26:41;;;;;;;2.22;1.98;;;6.20;99.90;;;;;;5020355;28;20766;-87
2024/01/06 12:29:07;;;;;;;5.93;2.10;;;6.20;99.90;;;;;;5017014;28;20182;-86
2024/01/06 12:31:34;;;;;;;3.33;1.03;;;8.20;99.90;;;;;;5016289;28;20192;-84
2024/01/06 12:34:00;;;;;;;2.55;1.83;;;6.00;99.90;;;;;;5017575;28;20186;-88
2024/01/06 12:36:25;;;;;;;5.50;3.22;;;7.60;99.90;;;;;;5020480;28;20203;-85
2024/01/06 12:38:56;;;;;;;5.03;2.07;;;6.70;99.90;;;;;;5016218;28;20377;-84
2024/01/06 12:41:28;;;;;;;4.03;2.88;;;7.40;99.90;;;;;;5020312;28;20314;-85
2024/01/06 12:43:54;;;;;;;5.57;3.00;;;6.00;99.90;;;;;;5014816;28;20182;-84
2024/01/06 12:46:20;;;;;;;5.80;3.00;;;6.00;99.90;;;;;;5013368;28;20264;-86
2024/01/06 12:48:48;;;;;;;3.70;2.33;;;5.90;99.90;;;;;;5021356;28;20222;-88
2024/01/06 12:51:13;;;;;;;5.07;2.20;;;5.90;99.90;;;;;;5009628;28;20185;-85
2024/01/06 12:53:39;;;;;;;2.70;1.87;;;5.80;99.90;;;;;;5006338;28;20186;-86